Rechercher aéroport 
image banner adimage banner adimage banner ad
image banner ad

C80 - New Coalinga Muni

Situé à Coalinga, United States

ICAO - C80, IATA -

Données fournies par Airmate  

Information générale

Coordonnées: N36°9'44" W120°17'41"
Élévation : 625 feet MSL.
Variation magnétique : 15° East
Voir autres Aéroports à California

Données opérationnelles

Special qualification required
Heure actuelle UTC:
Heure actuelle locale:
Météo à : KNLC - Lemoore Nas (Reeves Fld) ( 36 km )
METAR: KNLC 210256Z 33005KT 5SM HZ FU FEW010 24/08 A2995 RMK AO2 SLP140 FU FEW010 RH/38 T02390083 53010
TAF: TAF KNLC 2023/2123 36009KT 8000 HZ FU SCT010 QNH2988INS TEMPO 2100/2106 32008KT 4800 HZ FU BKN010 FM210600 VRB06KT 8000 HZ FU SCT010 QNH2987INS T13/2114Z T38/2123Z FS30012
Voir NOTAMs / SUP AIP / TFR affectant cet aéroport [VIEW]
Fréquences de communication: [VIEW]

Pistes:

Identifiant RWYQFULongueur (ft)Largeur (ft)SurfaceLDA (ft)
0112°247160OTHER
19191°247160OTHER
12130°5000100ASPH
30310°5000100ASPH

Coordonnées de l'aéroport

Adresse: Coalinga United States

Vue satellite de C80